sensor_id;sensor_type;location;lat;lon;timestamp;temperature;humidity
7192;DHT22;3637;51.494;11.958;2022-09-01T00:03:00;17.50;79.40
7192;DHT22;3637;51.494;11.958;2022-09-01T00:06:02;17.50;79.60
7192;DHT22;3637;51.494;11.958;2022-09-01T00:09:12;17.50;79.60
7192;DHT22;3637;51.494;11.958;2022-09-01T00:12:14;17.50;79.90
7192;DHT22;3637;51.494;11.958;2022-09-01T00:15:16;17.50;79.80
7192;DHT22;3637;51.494;11.958;2022-09-01T00:18:19;17.50;79.80
7192;DHT22;3637;51.494;11.958;2022-09-01T00:21:25;17.40;79.90
7192;DHT22;3637;51.494;11.958;2022-09-01T00:24:28;17.40;79.90
7192;DHT22;3637;51.494;11.958;2022-09-01T00:27:30;17.50;80.00
7192;DHT22;3637;51.494;11.958;2022-09-01T00:30:32;17.50;80.20
7192;DHT22;3637;51.494;11.958;2022-09-01T00:33:35;17.40;80.50
7192;DHT22;3637;51.494;11.958;2022-09-01T00:36:37;17.30;80.60
7192;DHT22;3637;51.494;11.958;2022-09-01T00:39:39;17.40;80.70
7192;DHT22;3637;51.494;11.958;2022-09-01T00:42:41;17.40;81.00
7192;DHT22;3637;51.494;11.958;2022-09-01T00:45:44;17.40;81.00
7192;DHT22;3637;51.494;11.958;2022-09-01T00:48:52;17.40;81.00
7192;DHT22;3637;51.494;11.958;2022-09-01T00:51:58;17.30;81.20
7192;DHT22;3637;51.494;11.958;2022-09-01T00:55:06;17.30;81.50
7192;DHT22;3637;51.494;11.958;2022-09-01T00:58:09;17.30;81.60
7192;DHT22;3637;51.494;11.958;2022-09-01T01:01:11;17.30;81.80
7192;DHT22;3637;51.494;11.958;2022-09-01T01:04:15;17.40;81.70
7192;DHT22;3637;51.494;11.958;2022-09-01T01:07:18;17.30;81.80
7192;DHT22;3637;51.494;11.958;2022-09-01T01:10:22;17.20;81.90
7192;DHT22;3637;51.494;11.958;2022-09-01T01:13:24;17.10;82.40
7192;DHT22;3637;51.494;11.958;2022-09-01T01:16:28;17.10;82.40
7192;DHT22;3637;51.494;11.958;2022-09-01T01:19:39;17.00;82.90
7192;DHT22;3637;51.494;11.958;2022-09-01T01:23:05;17.00;83.00
7192;DHT22;3637;51.494;11.958;2022-09-01T01:26:11;17.10;83.00
7192;DHT22;3637;51.494;11.958;2022-09-01T01:29:13;17.10;82.90
7192;DHT22;3637;51.494;11.958;2022-09-01T01:32:17;17.00;83.20
7192;DHT22;3637;51.494;11.958;2022-09-01T01:35:19;17.10;83.20
7192;DHT22;3637;51.494;11.958;2022-09-01T01:38:23;17.00;83.40
7192;DHT22;3637;51.494;11.958;2022-09-01T01:41:30;16.90;83.80
7192;DHT22;3637;51.494;11.958;2022-09-01T01:44:32;17.00;83.80
7192;DHT22;3637;51.494;11.958;2022-09-01T01:47:36;17.00;83.80
7192;DHT22;3637;51.494;11.958;2022-09-01T01:50:38;17.00;84.00
7192;DHT22;3637;51.494;11.958;2022-09-01T01:53:40;16.90;84.00
7192;DHT22;3637;51.494;11.958;2022-09-01T01:56:43;16.80;84.40
7192;DHT22;3637;51.494;11.958;2022-09-01T01:59:45;16.90;84.50
7192;DHT22;3637;51.494;11.958;2022-09-01T02:02:49;16.80;84.80
7192;DHT22;3637;51.494;11.958;2022-09-01T02:05:53;16.70;85.20
7192;DHT22;3637;51.494;11.958;2022-09-01T02:08:56;16.70;85.20
7192;DHT22;3637;51.494;11.958;2022-09-01T02:12:00;16.70;85.40
7192;DHT22;3637;51.494;11.958;2022-09-01T02:15:02;16.80;85.50
7192;DHT22;3637;51.494;11.958;2022-09-01T02:18:06;16.60;85.70
7192;DHT22;3637;51.494;11.958;2022-09-01T02:21:10;16.60;86.00
7192;DHT22;3637;51.494;11.958;2022-09-01T02:24:13;16.60;86.20
7192;DHT22;3637;51.494;11.958;2022-09-01T02:27:17;16.60;86.50
7192;DHT22;3637;51.494;11.958;2022-09-01T02:30:21;16.50;87.10
7192;DHT22;3637;51.494;11.958;2022-09-01T02:33:25;16.40;87.50
7192;DHT22;3637;51.494;11.958;2022-09-01T02:36:28;16.40;88.10
7192;DHT22;3637;51.494;11.958;2022-09-01T02:39:32;16.30;87.90
7192;DHT22;3637;51.494;11.958;2022-09-01T02:42:36;16.20;88.90
7192;DHT22;3637;51.494;11.958;2022-09-01T02:45:40;16.10;88.50
7192;DHT22;3637;51.494;11.958;2022-09-01T02:48:44;16.20;88.80
7192;DHT22;3637;51.494;11.958;2022-09-01T02:51:51;16.10;88.90
7192;DHT22;3637;51.494;11.958;2022-09-01T02:54:53;16.20;89.20
7192;DHT22;3637;51.494;11.958;2022-09-01T02:57:57;16.10;89.10
7192;DHT22;3637;51.494;11.958;2022-09-01T03:01:00;16.10;89.30
7192;DHT22;3637;51.494;11.958;2022-09-01T03:04:04;16.10;89.40
7192;DHT22;3637;51.494;11.958;2022-09-01T03:07:07;16.00;89.40
7192;DHT22;3637;51.494;11.958;2022-09-01T03:10:09;15.90;89.60
7192;DHT22;3637;51.494;11.958;2022-09-01T03:13:16;15.90;89.90
7192;DHT22;3637;51.494;11.958;2022-09-01T03:16:18;16.00;89.70
7192;DHT22;3637;51.494;11.958;2022-09-01T03:19:21;15.90;89.90
7192;DHT22;3637;51.494;11.958;2022-09-01T03:22:23;15.80;90.20
7192;DHT22;3637;51.494;11.958;2022-09-01T03:25:26;15.70;90.30
7192;DHT22;3637;51.494;11.958;2022-09-01T03:28:31;15.80;90.50
7192;DHT22;3637;51.494;11.958;2022-09-01T03:31:33;15.80;90.70
7192;DHT22;3637;51.494;11.958;2022-09-01T03:34:35;15.60;90.90
7192;DHT22;3637;51.494;11.958;2022-09-01T03:37:37;15.50;91.10
7192;DHT22;3637;51.494;11.958;2022-09-01T03:40:43;15.50;91.20
7192;DHT22;3637;51.494;11.958;2022-09-01T03:43:47;15.40;91.30
7192;DHT22;3637;51.494;11.958;2022-09-01T03:46:49;15.40;91.40
7192;DHT22;3637;51.494;11.958;2022-09-01T03:49:52;15.40;91.50
7192;DHT22;3637;51.494;11.958;2022-09-01T03:52:56;15.40;91.60
7192;DHT22;3637;51.494;11.958;2022-09-01T03:55:58;15.40;91.70
7192;DHT22;3637;51.494;11.958;2022-09-01T03:59:02;15.40;91.80
7192;DHT22;3637;51.494;11.958;2022-09-01T04:02:04;15.30;91.80
7192;DHT22;3637;51.494;11.958;2022-09-01T04:05:07;15.20;91.90
7192;DHT22;3637;51.494;11.958;2022-09-01T04:08:11;15.20;92.00
7192;DHT22;3637;51.494;11.958;2022-09-01T04:11:15;15.10;92.40
7192;DHT22;3637;51.494;11.958;2022-09-01T04:14:19;15.10;92.40
7192;DHT22;3637;51.494;11.958;2022-09-01T04:17:21;15.20;92.30
7192;DHT22;3637;51.494;11.958;2022-09-01T04:20:41;15.20;92.30
7192;DHT22;3637;51.494;11.958;2022-09-01T04:23:49;15.30;92.50
7192;DHT22;3637;51.494;11.958;2022-09-01T04:26:51;15.20;92.80
7192;DHT22;3637;51.494;11.958;2022-09-01T04:29:55;15.10;92.60
7192;DHT22;3637;51.494;11.958;2022-09-01T04:32:57;15.20;92.60
7192;DHT22;3637;51.494;11.958;2022-09-01T04:35:59;15.20;92.60
7192;DHT22;3637;51.494;11.958;2022-09-01T04:39:03;15.10;92.60
7192;DHT22;3637;51.494;11.958;2022-09-01T04:42:08;15.20;92.60
7192;DHT22;3637;51.494;11.958;2022-09-01T04:45:12;15.10;92.60
7192;DHT22;3637;51.494;11.958;2022-09-01T04:48:15;15.10;92.70
7192;DHT22;3637;51.494;11.958;2022-09-01T04:51:17;15.10;92.80
7192;DHT22;3637;51.494;11.958;2022-09-01T04:54:21;15.20;92.60
7192;DHT22;3637;51.494;11.958;2022-09-01T04:57:23;15.00;92.60
7192;DHT22;3637;51.494;11.958;2022-09-01T05:00:30;15.00;92.70
7192;DHT22;3637;51.494;11.958;2022-09-01T05:03:32;15.00;92.80
7192;DHT22;3637;51.494;11.958;2022-09-01T05:06:35;15.00;92.80
7192;DHT22;3637;51.494;11.958;2022-09-01T05:09:39;14.90;92.80
7192;DHT22;3637;51.494;11.958;2022-09-01T05:12:41;14.90;92.80
7192;DHT22;3637;51.494;11.958;2022-09-01T05:15:47;14.90;92.70
7192;DHT22;3637;51.494;11.958;2022-09-01T05:19:01;14.90;92.80
7192;DHT22;3637;51.494;11.958;2022-09-01T05:22:03;14.80;92.90
7192;DHT22;3637;51.494;11.958;2022-09-01T05:25:08;14.80;93.30
7192;DHT22;3637;51.494;11.958;2022-09-01T05:28:14;14.70;93.00
7192;DHT22;3637;51.494;11.958;2022-09-01T05:31:20;14.80;93.00
7192;DHT22;3637;51.494;11.958;2022-09-01T05:34:23;14.60;93.20
7192;DHT22;3637;51.494;11.958;2022-09-01T05:37:27;14.60;93.40
7192;DHT22;3637;51.494;11.958;2022-09-01T05:40:29;14.50;93.60
7192;DHT22;3637;51.494;11.958;2022-09-01T05:43:32;14.60;93.50
7192;DHT22;3637;51.494;11.958;2022-09-01T05:46:37;14.50;93.50
7192;DHT22;3637;51.494;11.958;2022-09-01T05:49:40;14.60;93.40
7192;DHT22;3637;51.494;11.958;2022-09-01T05:52:42;14.60;93.60
7192;DHT22;3637;51.494;11.958;2022-09-01T05:55:47;14.70;93.50
7192;DHT22;3637;51.494;11.958;2022-09-01T05:58:50;14.70;93.50
7192;DHT22;3637;51.494;11.958;2022-09-01T06:01:54;14.70;93.50
7192;DHT22;3637;51.494;11.958;2022-09-01T06:04:56;14.80;93.80
7192;DHT22;3637;51.494;11.958;2022-09-01T06:07:59;14.80;93.40
7192;DHT22;3637;51.494;11.958;2022-09-01T06:11:04;14.80;93.50
7192;DHT22;3637;51.494;11.958;2022-09-01T06:14:12;14.90;93.50
7192;DHT22;3637;51.494;11.958;2022-09-01T06:17:18;14.80;93.40
7192;DHT22;3637;51.494;11.958;2022-09-01T06:20:24;14.90;93.60
7192;DHT22;3637;51.494;11.958;2022-09-01T06:23:27;15.00;93.70
7192;DHT22;3637;51.494;11.958;2022-09-01T06:26:30;15.00;93.50
7192;DHT22;3637;51.494;11.958;2022-09-01T06:29:33;15.10;93.50
7192;DHT22;3637;51.494;11.958;2022-09-01T06:32:36;15.20;93.50
7192;DHT22;3637;51.494;11.958;2022-09-01T06:35:39;15.20;93.40
7192;DHT22;3637;51.494;11.958;2022-09-01T06:38:41;15.30;93.30
7192;DHT22;3637;51.494;11.958;2022-09-01T06:41:43;15.20;93.30
7192;DHT22;3637;51.494;11.958;2022-09-01T06:44:48;15.20;93.50
7192;DHT22;3637;51.494;11.958;2022-09-01T06:47:53;15.40;93.40
7192;DHT22;3637;51.494;11.958;2022-09-01T06:50:59;15.40;93.10
7192;DHT22;3637;51.494;11.958;2022-09-01T06:54:02;15.50;93.10
7192;DHT22;3637;51.494;11.958;2022-09-01T06:57:05;15.50;93.00
7192;DHT22;3637;51.494;11.958;2022-09-01T07:00:10;15.60;92.80
7192;DHT22;3637;51.494;11.958;2022-09-01T07:03:18;15.60;93.00
7192;DHT22;3637;51.494;11.958;2022-09-01T07:06:24;15.70;92.80
7192;DHT22;3637;51.494;11.958;2022-09-01T07:09:27;15.70;92.70
7192;DHT22;3637;51.494;11.958;2022-09-01T07:12:29;15.70;92.90
7192;DHT22;3637;51.494;11.958;2022-09-01T07:15:31;15.70;93.00
7192;DHT22;3637;51.494;11.958;2022-09-01T07:18:34;15.90;93.00
7192;DHT22;3637;51.494;11.958;2022-09-01T07:21:36;16.10;92.50
7192;DHT22;3637;51.494;11.958;2022-09-01T07:24:38;16.00;92.30
7192;DHT22;3637;51.494;11.958;2022-09-01T07:27:41;16.10;92.50
7192;DHT22;3637;51.494;11.958;2022-09-01T07:30:50;16.20;92.20
7192;DHT22;3637;51.494;11.958;2022-09-01T07:33:57;16.20;92.30
7192;DHT22;3637;51.494;11.958;2022-09-01T07:37:00;16.20;92.50
7192;DHT22;3637;51.494;11.958;2022-09-01T07:40:03;16.30;92.40
7192;DHT22;3637;51.494;11.958;2022-09-01T07:43:07;16.40;92.40
7192;DHT22;3637;51.494;11.958;2022-09-01T07:46:09;16.60;92.00
7192;DHT22;3637;51.494;11.958;2022-09-01T07:49:13;16.80;91.20
7192;DHT22;3637;51.494;11.958;2022-09-01T07:52:15;16.90;90.80
7192;DHT22;3637;51.494;11.958;2022-09-01T07:55:17;16.90;90.80
7192;DHT22;3637;51.494;11.958;2022-09-01T07:58:22;17.00;90.00
7192;DHT22;3637;51.494;11.958;2022-09-01T08:01:26;17.10;90.00
7192;DHT22;3637;51.494;11.958;2022-09-01T08:04:29;17.30;89.70
7192;DHT22;3637;51.494;11.958;2022-09-01T08:07:31;17.40;88.50
7192;DHT22;3637;51.494;11.958;2022-09-01T08:10:37;17.30;88.00
7192;DHT22;3637;51.494;11.958;2022-09-01T08:13:39;17.50;87.00
7192;DHT22;3637;51.494;11.958;2022-09-01T08:16:41;17.40;87.10
7192;DHT22;3637;51.494;11.958;2022-09-01T08:19:44;17.50;87.70
7192;DHT22;3637;51.494;11.958;2022-09-01T08:22:47;17.60;87.00
7192;DHT22;3637;51.494;11.958;2022-09-01T08:25:49;17.60;87.80
7192;DHT22;3637;51.494;11.958;2022-09-01T08:28:52;17.60;86.60
7192;DHT22;3637;51.494;11.958;2022-09-01T08:31:54;17.70;86.80
7192;DHT22;3637;51.494;11.958;2022-09-01T08:35:00;17.70;86.40
7192;DHT22;3637;51.494;11.958;2022-09-01T08:38:03;17.80;86.20
7192;DHT22;3637;51.494;11.958;2022-09-01T08:41:14;17.90;86.10
7192;DHT22;3637;51.494;11.958;2022-09-01T08:44:24;18.00;85.40
7192;DHT22;3637;51.494;11.958;2022-09-01T08:47:30;18.00;85.50
7192;DHT22;3637;51.494;11.958;2022-09-01T08:50:34;18.00;85.50
7192;DHT22;3637;51.494;11.958;2022-09-01T08:53:43;18.00;85.40
7192;DHT22;3637;51.494;11.958;2022-09-01T08:56:49;18.10;85.00
7192;DHT22;3637;51.494;11.958;2022-09-01T08:59:53;18.20;84.20
7192;DHT22;3637;51.494;11.958;2022-09-01T09:03:05;18.30;84.20
7192;DHT22;3637;51.494;11.958;2022-09-01T09:06:18;18.40;83.80
7192;DHT22;3637;51.494;11.958;2022-09-01T09:09:29;18.50;83.00
7192;DHT22;3637;51.494;11.958;2022-09-01T09:12:42;18.50;81.50
7192;DHT22;3637;51.494;11.958;2022-09-01T09:15:54;18.60;82.30
7192;DHT22;3637;51.494;11.958;2022-09-01T09:19:01;18.70;82.40
7192;DHT22;3637;51.494;11.958;2022-09-01T09:22:07;18.80;81.30
7192;DHT22;3637;51.494;11.958;2022-09-01T09:25:13;18.90;81.40
7192;DHT22;3637;51.494;11.958;2022-09-01T09:28:17;19.00;81.40
7192;DHT22;3637;51.494;11.958;2022-09-01T09:31:31;19.00;80.90
7192;DHT22;3637;51.494;11.958;2022-09-01T09:34:35;19.10;80.80
7192;DHT22;3637;51.494;11.958;2022-09-01T09:37:38;19.20;79.90
7192;DHT22;3637;51.494;11.958;2022-09-01T09:40:55;19.30;79.80
7192;DHT22;3637;51.494;11.958;2022-09-01T09:44:03;19.40;80.10
7192;DHT22;3637;51.494;11.958;2022-09-01T09:47:05;19.40;77.10
7192;DHT22;3637;51.494;11.958;2022-09-01T09:50:16;19.50;79.00
7192;DHT22;3637;51.494;11.958;2022-09-01T09:53:27;19.50;79.00
7192;DHT22;3637;51.494;11.958;2022-09-01T09:56:30;19.60;78.90
7192;DHT22;3637;51.494;11.958;2022-09-01T09:59:35;19.60;78.50
7192;DHT22;3637;51.494;11.958;2022-09-01T10:02:39;19.80;77.50
7192;DHT22;3637;51.494;11.958;2022-09-01T10:05:45;19.80;74.80
7192;DHT22;3637;51.494;11.958;2022-09-01T10:08:51;19.90;74.60
7192;DHT22;3637;51.494;11.958;2022-09-01T10:11:54;20.10;74.10
7192;DHT22;3637;51.494;11.958;2022-09-01T10:14:59;20.10;73.40
7192;DHT22;3637;51.494;11.958;2022-09-01T10:18:05;20.20;72.90
7192;DHT22;3637;51.494;11.958;2022-09-01T10:21:14;20.40;71.90
7192;DHT22;3637;51.494;11.958;2022-09-01T10:24:24;20.40;70.20
7192;DHT22;3637;51.494;11.958;2022-09-01T10:27:32;20.50;70.20
7192;DHT22;3637;51.494;11.958;2022-09-01T10:30:37;20.60;69.10
7192;DHT22;3637;51.494;11.958;2022-09-01T10:33:42;20.60;69.80
7192;DHT22;3637;51.494;11.958;2022-09-01T10:36:45;20.60;66.40
7192;DHT22;3637;51.494;11.958;2022-09-01T10:43:40;20.40;63.10
7192;DHT22;3637;51.494;11.958;2022-09-01T10:46:43;20.40;62.80
7192;DHT22;3637;51.494;11.958;2022-09-01T10:50:02;20.40;62.90
7192;DHT22;3637;51.494;11.958;2022-09-01T10:53:06;20.40;62.00
7192;DHT22;3637;51.494;11.958;2022-09-01T10:56:10;20.40;61.00
7192;DHT22;3637;51.494;11.958;2022-09-01T10:59:25;20.50;60.80
7192;DHT22;3637;51.494;11.958;2022-09-01T11:02:28;20.50;58.60
7192;DHT22;3637;51.494;11.958;2022-09-01T11:05:57;20.70;59.60
7192;DHT22;3637;51.494;11.958;2022-09-01T11:09:02;20.80;61.90
7192;DHT22;3637;51.494;11.958;2022-09-01T11:15:45;21.00;59.90
7192;DHT22;3637;51.494;11.958;2022-09-01T11:18:48;21.10;59.10
7192;DHT22;3637;51.494;11.958;2022-09-01T11:22:04;21.30;58.10
7192;DHT22;3637;51.494;11.958;2022-09-01T11:25:34;21.30;56.40
7192;DHT22;3637;51.494;11.958;2022-09-01T11:28:41;21.40;57.20
7192;DHT22;3637;51.494;11.958;2022-09-01T11:31:46;21.60;55.20
7192;DHT22;3637;51.494;11.958;2022-09-01T11:34:48;21.70;55.40
7192;DHT22;3637;51.494;11.958;2022-09-01T11:37:54;21.60;55.20
7192;DHT22;3637;51.494;11.958;2022-09-01T11:40:57;21.40;55.60
7192;DHT22;3637;51.494;11.958;2022-09-01T11:44:01;21.30;55.00
7192;DHT22;3637;51.494;11.958;2022-09-01T11:47:07;21.30;55.40
7192;DHT22;3637;51.494;11.958;2022-09-01T11:50:18;21.30;56.50
7192;DHT22;3637;51.494;11.958;2022-09-01T11:53:22;21.30;55.60
7192;DHT22;3637;51.494;11.958;2022-09-01T11:56:26;21.40;55.40
7192;DHT22;3637;51.494;11.958;2022-09-01T11:59:33;21.50;55.30
7192;DHT22;3637;51.494;11.958;2022-09-01T12:02:45;21.60;53.60
7192;DHT22;3637;51.494;11.958;2022-09-01T12:05:51;21.50;53.90
7192;DHT22;3637;51.494;11.958;2022-09-01T12:09:00;21.50;52.70
7192;DHT22;3637;51.494;11.958;2022-09-01T12:12:05;21.60;52.00
7192;DHT22;3637;51.494;11.958;2022-09-01T12:15:10;21.60;51.10
7192;DHT22;3637;51.494;11.958;2022-09-01T12:18:21;21.60;51.20
7192;DHT22;3637;51.494;11.958;2022-09-01T12:21:28;21.50;51.60
7192;DHT22;3637;51.494;11.958;2022-09-01T12:24:33;21.50;52.10
7192;DHT22;3637;51.494;11.958;2022-09-01T12:27:36;21.40;53.00
7192;DHT22;3637;51.494;11.958;2022-09-01T12:30:39;21.30;51.60
7192;DHT22;3637;51.494;11.958;2022-09-01T12:33:43;21.30;51.90
7192;DHT22;3637;51.494;11.958;2022-09-01T12:37:02;21.30;52.50
7192;DHT22;3637;51.494;11.958;2022-09-01T12:40:05;21.40;52.70
7192;DHT22;3637;51.494;11.958;2022-09-01T12:43:07;21.40;52.40
7192;DHT22;3637;51.494;11.958;2022-09-01T12:46:09;21.60;51.10
7192;DHT22;3637;51.494;11.958;2022-09-01T12:49:17;21.70;50.20
7192;DHT22;3637;51.494;11.958;2022-09-01T12:52:22;21.70;49.70
7192;DHT22;3637;51.494;11.958;2022-09-01T12:55:27;21.70;49.20
7192;DHT22;3637;51.494;11.958;2022-09-01T12:58:31;21.60;50.00
7192;DHT22;3637;51.494;11.958;2022-09-01T13:01:34;21.50;50.20
7192;DHT22;3637;51.494;11.958;2022-09-01T13:04:37;21.50;50.90
7192;DHT22;3637;51.494;11.958;2022-09-01T13:07:41;21.40;51.70
7192;DHT22;3637;51.494;11.958;2022-09-01T13:10:45;21.50;50.70
7192;DHT22;3637;51.494;11.958;2022-09-01T13:13:47;21.50;50.80
7192;DHT22;3637;51.494;11.958;2022-09-01T13:16:49;21.70;51.00
7192;DHT22;3637;51.494;11.958;2022-09-01T13:19:52;21.90;49.60
7192;DHT22;3637;51.494;11.958;2022-09-01T13:22:54;22.00;49.90
7192;DHT22;3637;51.494;11.958;2022-09-01T13:25:56;22.00;49.30
7192;DHT22;3637;51.494;11.958;2022-09-01T13:28:59;22.30;50.50
7192;DHT22;3637;51.494;11.958;2022-09-01T13:32:00;22.40;50.60
7192;DHT22;3637;51.494;11.958;2022-09-01T13:35:05;22.50;51.00
7192;DHT22;3637;51.494;11.958;2022-09-01T13:38:07;22.60;49.70
7192;DHT22;3637;51.494;11.958;2022-09-01T13:41:09;22.50;49.70
7192;DHT22;3637;51.494;11.958;2022-09-01T13:44:11;22.60;50.20
7192;DHT22;3637;51.494;11.958;2022-09-01T13:47:13;22.40;51.50
7192;DHT22;3637;51.494;11.958;2022-09-01T13:50:18;22.30;50.80
7192;DHT22;3637;51.494;11.958;2022-09-01T13:53:20;22.20;51.00
7192;DHT22;3637;51.494;11.958;2022-09-01T13:56:22;22.10;50.50
7192;DHT22;3637;51.494;11.958;2022-09-01T13:59:25;22.10;48.70
7192;DHT22;3637;51.494;11.958;2022-09-01T14:02:27;22.10;49.70
7192;DHT22;3637;51.494;11.958;2022-09-01T14:05:32;22.00;49.50
7192;DHT22;3637;51.494;11.958;2022-09-01T14:08:34;22.00;49.80
7192;DHT22;3637;51.494;11.958;2022-09-01T14:11:38;21.90;50.20
7192;DHT22;3637;51.494;11.958;2022-09-01T14:14:40;21.80;50.20
7192;DHT22;3637;51.494;11.958;2022-09-01T14:17:43;21.80;50.80
7192;DHT22;3637;51.494;11.958;2022-09-01T14:20:49;21.70;50.20
7192;DHT22;3637;51.494;11.958;2022-09-01T14:23:51;21.70;50.10
7192;DHT22;3637;51.494;11.958;2022-09-01T14:26:53;21.70;50.50
7192;DHT22;3637;51.494;11.958;2022-09-01T14:29:55;21.70;50.70
7192;DHT22;3637;51.494;11.958;2022-09-01T14:32:57;21.80;50.00
7192;DHT22;3637;51.494;11.958;2022-09-01T14:36:01;21.90;49.60
7192;DHT22;3637;51.494;11.958;2022-09-01T14:39:04;22.00;49.30
7192;DHT22;3637;51.494;11.958;2022-09-01T14:42:06;22.10;50.00
7192;DHT22;3637;51.494;11.958;2022-09-01T14:45:11;22.10;49.40
7192;DHT22;3637;51.494;11.958;2022-09-01T14:48:17;22.10;49.80
7192;DHT22;3637;51.494;11.958;2022-09-01T14:51:23;22.10;49.80
7192;DHT22;3637;51.494;11.958;2022-09-01T14:54:26;22.00;49.60
7192;DHT22;3637;51.494;11.958;2022-09-01T14:57:27;22.00;50.50
7192;DHT22;3637;51.494;11.958;2022-09-01T15:00:30;21.90;49.80
7192;DHT22;3637;51.494;11.958;2022-09-01T15:03:35;21.90;50.00
7192;DHT22;3637;51.494;11.958;2022-09-01T15:06:38;21.80;50.00
7192;DHT22;3637;51.494;11.958;2022-09-01T15:09:40;21.80;50.00
7192;DHT22;3637;51.494;11.958;2022-09-01T15:12:42;21.80;49.40
7192;DHT22;3637;51.494;11.958;2022-09-01T15:15:44;22.00;48.70
7192;DHT22;3637;51.494;11.958;2022-09-01T15:18:46;22.00;49.40
7192;DHT22;3637;51.494;11.958;2022-09-01T15:21:50;22.10;49.60
7192;DHT22;3637;51.494;11.958;2022-09-01T15:24:52;22.10;50.10
7192;DHT22;3637;51.494;11.958;2022-09-01T15:27:54;22.10;49.00
7192;DHT22;3637;51.494;11.958;2022-09-01T15:30:56;22.20;50.00
7192;DHT22;3637;51.494;11.958;2022-09-01T15:34:01;22.20;49.10
7192;DHT22;3637;51.494;11.958;2022-09-01T15:37:05;22.20;50.00
7192;DHT22;3637;51.494;11.958;2022-09-01T15:40:08;22.20;49.30
7192;DHT22;3637;51.494;11.958;2022-09-01T15:43:10;22.10;49.60
7192;DHT22;3637;51.494;11.958;2022-09-01T15:46:13;22.10;49.50
7192;DHT22;3637;51.494;11.958;2022-09-01T15:49:15;22.10;49.60
7192;DHT22;3637;51.494;11.958;2022-09-01T15:52:19;22.00;49.30
7192;DHT22;3637;51.494;11.958;2022-09-01T15:55:23;22.00;49.50
7192;DHT22;3637;51.494;11.958;2022-09-01T15:58:25;22.00;49.70
7192;DHT22;3637;51.494;11.958;2022-09-01T16:01:29;22.00;49.50
7192;DHT22;3637;51.494;11.958;2022-09-01T16:04:31;21.80;49.00
7192;DHT22;3637;51.494;11.958;2022-09-01T16:07:34;21.80;49.50
7192;DHT22;3637;51.494;11.958;2022-09-01T16:10:38;21.90;49.80
7192;DHT22;3637;51.494;11.958;2022-09-01T16:13:42;21.80;49.60
7192;DHT22;3637;51.494;11.958;2022-09-01T16:16:50;21.90;49.80
7192;DHT22;3637;51.494;11.958;2022-09-01T16:19:57;21.90;48.70
7192;DHT22;3637;51.494;11.958;2022-09-01T16:23:10;21.90;49.30
7192;DHT22;3637;51.494;11.958;2022-09-01T16:26:12;21.80;49.00
7192;DHT22;3637;51.494;11.958;2022-09-01T16:29:20;21.80;49.40
7192;DHT22;3637;51.494;11.958;2022-09-01T16:32:22;21.80;48.60
7192;DHT22;3637;51.494;11.958;2022-09-01T16:35:34;21.90;48.90
7192;DHT22;3637;51.494;11.958;2022-09-01T16:38:49;21.90;49.40
7192;DHT22;3637;51.494;11.958;2022-09-01T16:42:07;21.80;48.60
7192;DHT22;3637;51.494;11.958;2022-09-01T16:45:37;21.90;48.50
7192;DHT22;3637;51.494;11.958;2022-09-01T16:48:44;21.80;48.80
7192;DHT22;3637;51.494;11.958;2022-09-01T16:51:54;21.70;49.00
7192;DHT22;3637;51.494;11.958;2022-09-01T16:55:14;21.70;49.30
7192;DHT22;3637;51.494;11.958;2022-09-01T16:58:20;21.60;49.90
7192;DHT22;3637;51.494;11.958;2022-09-01T17:01:38;21.60;49.80
7192;DHT22;3637;51.494;11.958;2022-09-01T17:04:45;21.50;49.50
7192;DHT22;3637;51.494;11.958;2022-09-01T17:07:51;21.50;50.00
7192;DHT22;3637;51.494;11.958;2022-09-01T17:10:57;21.50;50.10
7192;DHT22;3637;51.494;11.958;2022-09-01T17:14:02;21.40;50.30
7192;DHT22;3637;51.494;11.958;2022-09-01T17:17:10;21.40;50.50
7192;DHT22;3637;51.494;11.958;2022-09-01T17:20:13;21.30;50.20
7192;DHT22;3637;51.494;11.958;2022-09-01T17:23:21;21.30;50.00
7192;DHT22;3637;51.494;11.958;2022-09-01T17:26:29;21.30;50.10
7192;DHT22;3637;51.494;11.958;2022-09-01T17:29:37;21.30;50.20
7192;DHT22;3637;51.494;11.958;2022-09-01T17:32:51;21.20;50.30
7192;DHT22;3637;51.494;11.958;2022-09-01T17:36:04;21.20;50.40
7192;DHT22;3637;51.494;11.958;2022-09-01T17:39:19;21.10;50.90
7192;DHT22;3637;51.494;11.958;2022-09-01T17:42:29;21.10;50.70
7192;DHT22;3637;51.494;11.958;2022-09-01T17:45:38;21.10;51.70
7192;DHT22;3637;51.494;11.958;2022-09-01T17:48:53;21.00;51.30
7192;DHT22;3637;51.494;11.958;2022-09-01T17:52:00;21.00;51.40
7192;DHT22;3637;51.494;11.958;2022-09-01T17:55:11;20.90;51.70
7192;DHT22;3637;51.494;11.958;2022-09-01T17:58:26;20.90;52.30
7192;DHT22;3637;51.494;11.958;2022-09-01T18:01:38;20.80;53.10
7192;DHT22;3637;51.494;11.958;2022-09-01T18:05:03;20.70;53.20
7192;DHT22;3637;51.494;11.958;2022-09-01T18:08:19;20.70;53.40
7192;DHT22;3637;51.494;11.958;2022-09-01T18:11:27;20.50;53.60
7192;DHT22;3637;51.494;11.958;2022-09-01T18:14:38;20.50;53.90
7192;DHT22;3637;51.494;11.958;2022-09-01T18:17:44;20.40;54.20
7192;DHT22;3637;51.494;11.958;2022-09-01T18:20:47;20.40;54.50
7192;DHT22;3637;51.494;11.958;2022-09-01T18:23:54;20.40;54.80
7192;DHT22;3637;51.494;11.958;2022-09-01T18:26:58;20.40;55.00
7192;DHT22;3637;51.494;11.958;2022-09-01T18:30:03;20.40;55.70
7192;DHT22;3637;51.494;11.958;2022-09-01T18:33:15;20.30;56.20
7192;DHT22;3637;51.494;11.958;2022-09-01T18:36:32;20.30;56.70
7192;DHT22;3637;51.494;11.958;2022-09-01T18:39:43;20.20;57.10
7192;DHT22;3637;51.494;11.958;2022-09-01T18:42:52;20.10;57.50
7192;DHT22;3637;51.494;11.958;2022-09-01T18:46:04;20.10;57.90
7192;DHT22;3637;51.494;11.958;2022-09-01T18:49:16;20.00;58.60
7192;DHT22;3637;51.494;11.958;2022-09-01T18:52:29;20.00;59.00
7192;DHT22;3637;51.494;11.958;2022-09-01T18:55:43;20.00;59.30
7192;DHT22;3637;51.494;11.958;2022-09-01T18:58:59;20.00;59.60
7192;DHT22;3637;51.494;11.958;2022-09-01T19:02:19;19.90;60.70
7192;DHT22;3637;51.494;11.958;2022-09-01T19:05:39;19.80;60.20
7192;DHT22;3637;51.494;11.958;2022-09-01T19:09:06;19.70;60.70
7192;DHT22;3637;51.494;11.958;2022-09-01T19:12:22;19.70;61.00
7192;DHT22;3637;51.494;11.958;2022-09-01T19:15:32;19.60;61.30
7192;DHT22;3637;51.494;11.958;2022-09-01T19:18:40;19.60;61.50
7192;DHT22;3637;51.494;11.958;2022-09-01T19:21:45;19.50;62.10
7192;DHT22;3637;51.494;11.958;2022-09-01T19:24:52;19.50;63.10
7192;DHT22;3637;51.494;11.958;2022-09-01T19:28:20;19.50;63.30
7192;DHT22;3637;51.494;11.958;2022-09-01T19:31:26;19.40;63.70
7192;DHT22;3637;51.494;11.958;2022-09-01T19:34:34;19.40;64.00
7192;DHT22;3637;51.494;11.958;2022-09-01T19:37:38;19.40;64.30
7192;DHT22;3637;51.494;11.958;2022-09-01T19:40:42;19.40;64.50
7192;DHT22;3637;51.494;11.958;2022-09-01T19:43:47;19.30;64.90
7192;DHT22;3637;51.494;11.958;2022-09-01T19:46:54;19.20;65.30
7192;DHT22;3637;51.494;11.958;2022-09-01T19:50:04;19.20;65.40
7192;DHT22;3637;51.494;11.958;2022-09-01T19:53:18;19.30;65.60
7192;DHT22;3637;51.494;11.958;2022-09-01T19:56:24;19.20;65.50
7192;DHT22;3637;51.494;11.958;2022-09-01T19:59:38;19.10;65.70